createdAt,value
2022-12-18T00:02:13.518Z,39.15
2022-12-18T00:04:40.554Z,40.20
2022-12-18T00:07:07.426Z,37.13
2022-12-18T00:09:40.074Z,34.88
2022-12-18T00:14:45.626Z,36.35
2022-12-18T00:17:12.910Z,34.60
2022-12-18T00:19:39.373Z,35.47
2022-12-18T00:22:07.212Z,35.92
2022-12-18T00:24:34.059Z,36.03
2022-12-18T00:27:00.548Z,35.55
2022-12-18T00:29:27.050Z,35.22
2022-12-18T00:31:54.168Z,33.97
2022-12-18T00:34:20.552Z,32.50
2022-12-18T00:36:48.637Z,35.15
2022-12-18T00:39:15.172Z,33.78
2022-12-18T00:42:03.664Z,34.13
2022-12-18T00:44:31.086Z,38.58
2022-12-18T00:46:57.779Z,38.40
2022-12-18T00:49:24.850Z,37.00
2022-12-18T00:51:51.598Z,35.92
2022-12-18T00:54:18.863Z,38.55
2022-12-18T00:56:49.470Z,35.97
2022-12-18T00:59:17.844Z,35.05
2022-12-18T01:01:45.734Z,35.83
2022-12-18T01:04:12.591Z,35.75
2022-12-18T01:06:39.345Z,34.25
2022-12-18T01:09:06.924Z,35.72
2022-12-18T01:11:36.395Z,34.97
2022-12-18T01:14:05.138Z,36.40
2022-12-18T01:16:31.787Z,38.00
2022-12-18T01:18:58.265Z,36.38
2022-12-18T01:21:27.269Z,37.60
2022-12-18T01:23:55.845Z,36.72
2022-12-18T01:26:24.356Z,36.70
2022-12-18T01:29:11.281Z,36.95
2022-12-18T01:31:57.754Z,37.85
2022-12-18T01:34:44.699Z,35.00
2022-12-18T01:37:31.106Z,37.88
2022-12-18T01:40:18.056Z,37.05
2022-12-18T01:43:04.609Z,34.88
2022-12-18T01:45:33.048Z,35.88
2022-12-18T01:48:07.197Z,35.53
2022-12-18T01:50:40.603Z,34.17
2022-12-18T01:53:12.333Z,37.50
2022-12-18T01:55:43.944Z,34.58
2022-12-18T01:58:11.253Z,36.20
2022-12-18T02:00:37.733Z,33.05
2022-12-18T02:03:04.298Z,33.45
2022-12-18T02:06:01.838Z,35.78
2022-12-18T02:08:38.769Z,31.95
2022-12-18T02:11:13.281Z,31.20
2022-12-18T02:14:05.170Z,33.30
2022-12-18T02:16:53.108Z,33.85
2022-12-18T02:20:02.550Z,32.00
2022-12-18T02:22:29.733Z,31.33
2022-12-18T02:25:29.293Z,32.70
2022-12-18T02:27:59.032Z,31.02
2022-12-18T02:30:28.280Z,30.08
2022-12-18T02:32:56.810Z,34.40
2022-12-18T02:35:26.949Z,32.90
2022-12-18T02:37:56.467Z,32.88
2022-12-18T02:40:26.911Z,34.88
2022-12-18T02:42:53.388Z,34.17
2022-12-18T02:45:20.972Z,33.40
2022-12-18T02:47:50.733Z,35.17
2022-12-18T02:50:39.374Z,35.63
2022-12-18T02:53:37.696Z,33.63
2022-12-18T02:56:16.895Z,34.15
2022-12-18T02:59:07.121Z,32.50
2022-12-18T03:04:29.909Z,32.33
2022-12-18T03:07:01.081Z,36.55
2022-12-18T03:09:39.088Z,36.55
2022-12-18T03:12:25.944Z,36.22
2022-12-18T03:15:17.491Z,33.13
2022-12-18T03:18:00.240Z,33.22
2022-12-18T03:20:32.173Z,31.52
2022-12-18T03:23:10.468Z,32.88
2022-12-18T03:25:41.661Z,32.47
2022-12-18T03:28:13.537Z,34.53
2022-12-18T03:30:43.257Z,32.33
2022-12-18T03:33:20.752Z,33.47
2022-12-18T03:35:50.196Z,34.95
2022-12-18T03:38:18.381Z,30.48
2022-12-18T03:40:54.938Z,33.90
2022-12-18T03:43:36.533Z,35.00
2022-12-18T03:46:09.631Z,33.42
2022-12-18T03:48:44.629Z,33.90
2022-12-18T03:51:37.830Z,33.40
2022-12-18T03:54:07.953Z,31.50
2022-12-18T03:56:48.246Z,35.35
2022-12-18T03:59:17.831Z,32.67
2022-12-18T04:01:48.605Z,34.60
2022-12-18T04:04:19.098Z,33.28
2022-12-18T04:06:48.867Z,31.05
2022-12-18T04:09:17.510Z,33.33
2022-12-18T04:11:48.216Z,34.90
2022-12-18T04:14:18.319Z,33.50
2022-12-18T04:16:49.253Z,32.90
2022-12-18T04:19:18.207Z,34.75
2022-12-18T04:21:47.880Z,33.60
2022-12-18T04:24:14.952Z,34.50
2022-12-18T04:26:50.724Z,31.33
2022-12-18T04:29:22.218Z,31.80
2022-12-18T04:31:49.395Z,29.88
2022-12-18T04:34:16.610Z,31.63
2022-12-18T04:36:49.045Z,34.55
2022-12-18T04:39:19.663Z,33.60
2022-12-18T04:41:48.652Z,33.55
2022-12-18T04:44:15.584Z,33.55
2022-12-18T04:46:43.688Z,31.70
2022-12-18T04:49:11.559Z,31.25
2022-12-18T04:51:38.615Z,34.63
2022-12-18T04:54:05.232Z,31.02
2022-12-18T04:56:32.968Z,34.80
2022-12-18T04:58:59.800Z,33.85
2022-12-18T05:01:32.545Z,31.33
2022-12-18T05:04:02.123Z,30.33
2022-12-18T05:06:28.647Z,32.10
2022-12-18T05:08:55.489Z,29.65
2022-12-18T05:11:22.470Z,32.78
2022-12-18T05:13:50.259Z,31.65
2022-12-18T05:16:17.022Z,30.60
2022-12-18T05:18:44.212Z,28.67
2022-12-18T05:21:10.922Z,31.52
2022-12-18T05:23:38.157Z,31.20
2022-12-18T05:26:07.040Z,32.88
2022-12-18T05:28:35.165Z,31.10
2022-12-18T05:31:04.052Z,33.03
2022-12-18T05:33:33.118Z,32.78
2022-12-18T05:36:06.386Z,32.28
2022-12-18T05:38:35.017Z,33.45
2022-12-18T05:41:01.611Z,31.88
2022-12-18T05:43:29.385Z,35.05
2022-12-18T05:45:59.446Z,33.65
2022-12-18T05:50:53.286Z,33.60
2022-12-18T05:53:21.190Z,30.98
2022-12-18T05:55:48.963Z,32.90
2022-12-18T05:58:16.344Z,33.80
2022-12-18T06:00:46.440Z,32.65
2022-12-18T06:03:14.291Z,34.13
2022-12-18T06:05:45.757Z,33.85
2022-12-18T06:08:13.522Z,31.20
2022-12-18T06:10:40.495Z,31.80
2022-12-18T06:13:07.860Z,32.08
2022-12-18T06:15:38.230Z,34.67
2022-12-18T06:18:04.802Z,34.25
2022-12-18T06:20:33.684Z,32.88
2022-12-18T06:23:00.829Z,35.35
2022-12-18T06:25:27.481Z,34.80
2022-12-18T06:27:55.024Z,34.85
2022-12-18T06:30:21.723Z,34.97
2022-12-18T06:32:54.658Z,35.65
2022-12-18T06:35:22.655Z,37.30
2022-12-18T06:37:49.609Z,35.17
2022-12-18T06:40:16.415Z,35.97
2022-12-18T06:42:43.090Z,31.73
2022-12-18T06:45:10.160Z,31.38
2022-12-18T06:47:36.944Z,33.70
2022-12-18T06:50:03.791Z,34.10
2022-12-18T06:52:32.833Z,32.38
2022-12-18T06:54:59.806Z,24.00
2022-12-18T06:57:26.261Z,31.42
2022-12-18T06:59:53.126Z,31.83
2022-12-18T07:02:19.787Z,32.58
2022-12-18T07:04:46.516Z,32.55
2022-12-18T07:07:12.969Z,33.20
2022-12-18T07:09:39.809Z,31.67
2022-12-18T07:12:08.161Z,31.38
2022-12-18T07:14:35.129Z,29.15
2022-12-18T07:17:01.886Z,32.45
2022-12-18T07:19:28.644Z,30.33
2022-12-18T07:21:56.422Z,28.30
2022-12-18T07:24:22.815Z,34.10
2022-12-18T07:26:49.449Z,31.50
2022-12-18T07:29:16.114Z,29.58
2022-12-18T07:31:43.055Z,30.63
2022-12-18T07:34:14.106Z,28.75
2022-12-18T07:36:40.583Z,30.17
2022-12-18T07:39:07.056Z,33.05
2022-12-18T07:41:34.173Z,30.95
2022-12-18T07:44:11.640Z,32.03
2022-12-18T07:46:38.607Z,29.93
2022-12-18T07:49:05.505Z,30.23
2022-12-18T07:51:32.238Z,29.73
2022-12-18T07:53:58.709Z,28.38
2022-12-18T07:56:28.297Z,30.70
2022-12-18T07:58:55.508Z,33.03
2022-12-18T08:01:22.456Z,28.73
2022-12-18T08:03:49.040Z,31.83
2022-12-18T08:06:18.906Z,29.63
2022-12-18T08:08:45.297Z,32.13
2022-12-18T08:11:11.718Z,32.42
2022-12-18T08:13:38.594Z,31.45
2022-12-18T08:16:07.836Z,30.77
2022-12-18T08:18:36.514Z,31.15
2022-12-18T08:21:10.492Z,33.08
2022-12-18T08:23:42.292Z,30.48
2022-12-18T08:26:10.381Z,32.47
2022-12-18T08:28:37.205Z,30.52
2022-12-18T08:31:03.902Z,29.92
2022-12-18T08:33:30.438Z,31.20
2022-12-18T08:35:56.890Z,32.97
2022-12-18T08:38:24.155Z,30.15
2022-12-18T08:40:50.610Z,33.35
2022-12-18T08:43:35.779Z,33.60
2022-12-18T08:46:02.705Z,33.78
2022-12-18T08:48:29.168Z,35.00
2022-12-18T08:51:00.146Z,36.55
2022-12-18T08:53:30.359Z,35.67
2022-12-18T08:56:01.064Z,34.63
2022-12-18T08:58:27.477Z,36.70
2022-12-18T09:00:54.236Z,36.15
2022-12-18T09:03:23.406Z,33.90
2022-12-18T09:05:49.964Z,35.08
2022-12-18T09:08:16.769Z,35.67
2022-12-18T09:10:45.279Z,36.70
2022-12-18T09:13:12.958Z,36.80
2022-12-18T09:15:43.766Z,37.67
2022-12-18T09:18:10.455Z,34.08
2022-12-18T09:20:38.156Z,37.25
2022-12-18T09:23:05.449Z,37.78
2022-12-18T09:25:36.645Z,37.88
2022-12-18T09:28:07.578Z,36.33
2022-12-18T09:30:35.093Z,38.92
2022-12-18T09:33:02.473Z,37.33
2022-12-18T09:35:28.920Z,37.28
2022-12-18T09:37:55.954Z,39.30
2022-12-18T09:40:25.730Z,38.67
2022-12-18T09:42:58.313Z,37.40
2022-12-18T09:45:25.087Z,38.03
2022-12-18T09:47:55.505Z,37.78
2022-12-18T09:50:31.341Z,37.45
2022-12-18T09:53:03.755Z,39.28
2022-12-18T09:55:43.071Z,37.63
2022-12-18T10:00:37.598Z,37.08
2022-12-18T10:03:15.705Z,35.65
2022-12-18T10:06:05.432Z,35.95
2022-12-18T10:08:40.799Z,36.25
2022-12-18T10:11:35.586Z,33.13
2022-12-18T10:14:20.408Z,35.17
2022-12-18T10:17:03.777Z,32.90
2022-12-18T10:19:52.608Z,35.08
2022-12-18T10:22:34.580Z,37.30
2022-12-18T10:25:10.971Z,34.70
2022-12-18T10:27:37.365Z,33.80
2022-12-18T10:30:21.762Z,33.60
2022-12-18T10:32:48.629Z,34.05
2022-12-18T10:35:27.669Z,35.40
2022-12-18T10:38:01.512Z,32.70
2022-12-18T10:40:28.643Z,35.08
2022-12-18T10:43:15.522Z,35.55
2022-12-18T10:45:43.087Z,32.85
2022-12-18T10:48:23.064Z,33.97
2022-12-18T10:53:42.629Z,32.27
2022-12-18T10:56:10.015Z,34.15
2022-12-18T10:58:38.888Z,32.78
2022-12-18T11:01:09.954Z,34.85
2022-12-18T11:04:02.394Z,34.97
2022-12-18T11:06:29.679Z,34.78
2022-12-18T11:09:07.856Z,31.98
2022-12-18T11:11:38.188Z,34.35
2022-12-18T11:14:07.614Z,33.20
2022-12-18T11:16:57.864Z,34.78
2022-12-18T11:19:41.817Z,31.35
2022-12-18T11:22:41.381Z,32.72
2022-12-18T11:25:32.997Z,33.08
2022-12-18T11:28:03.851Z,33.42
2022-12-18T11:30:33.493Z,33.35
2022-12-18T11:33:32.416Z,33.47
2022-12-18T11:36:04.592Z,32.42
2022-12-18T11:38:35.571Z,33.58
2022-12-18T11:41:16.230Z,35.03
2022-12-18T11:44:00.394Z,33.67
2022-12-18T11:46:48.070Z,36.25
2022-12-18T11:49:19.777Z,34.85
2022-12-18T11:51:56.483Z,32.78
2022-12-18T11:54:22.958Z,32.72
2022-12-18T11:56:49.319Z,34.75
2022-12-18T11:59:43.734Z,35.10
2022-12-18T12:02:44.666Z,36.28
2022-12-18T12:05:21.325Z,36.63
2022-12-18T12:08:10.465Z,33.20
2022-12-18T12:11:07.066Z,35.58
2022-12-18T12:13:44.691Z,35.28
2022-12-18T12:16:26.909Z,34.15
2022-12-18T12:19:07.517Z,32.78
2022-12-18T12:21:41.784Z,35.05
2022-12-18T12:24:35.657Z,34.38
2022-12-18T12:27:34.807Z,33.42
2022-12-18T12:30:12.244Z,36.72
2022-12-18T12:33:06.710Z,35.20
2022-12-18T12:35:49.276Z,34.42
2022-12-18T12:38:22.466Z,35.00
2022-12-18T12:41:03.396Z,35.70
2022-12-18T12:43:52.028Z,36.97
2022-12-18T12:46:22.390Z,36.33
2022-12-18T12:51:26.708Z,37.10
2022-12-18T12:53:55.431Z,37.25
2022-12-18T12:56:22.853Z,36.45
2022-12-18T12:59:01.975Z,38.80
2022-12-18T13:01:40.844Z,38.53
2022-12-18T13:04:13.424Z,36.53
2022-12-18T13:06:51.413Z,40.08
2022-12-18T13:09:18.533Z,37.15
2022-12-18T13:12:06.414Z,38.25
2022-12-18T13:14:36.916Z,37.15
2022-12-18T13:19:53.776Z,38.08
2022-12-18T13:22:29.697Z,39.95
2022-12-18T13:24:56.324Z,39.72
2022-12-18T13:28:10.112Z,40.00
2022-12-18T13:30:36.775Z,39.92
2022-12-18T13:33:28.103Z,38.03
2022-12-18T13:36:02.397Z,39.88
2022-12-18T13:38:32.184Z,38.95
2022-12-18T13:41:23.803Z,39.55
2022-12-18T13:43:58.694Z,40.10
2022-12-18T13:46:30.919Z,39.38
2022-12-18T13:49:06.669Z,41.05
2022-12-18T13:51:36.161Z,39.03
2022-12-18T13:54:28.311Z,37.65
2022-12-18T13:56:55.310Z,38.42
2022-12-18T13:59:27.406Z,39.67
2022-12-18T14:02:00.328Z,38.53
2022-12-18T14:04:33.117Z,39.05
2022-12-18T14:07:34.993Z,39.90
2022-12-18T14:10:45.529Z,35.88
2022-12-18T14:13:07.749Z,36.67
2022-12-18T14:15:47.352Z,42.90
2022-12-18T14:18:21.257Z,36.97
2022-12-18T14:20:53.013Z,36.65
2022-12-18T14:23:31.954Z,35.38
2022-12-18T14:26:05.128Z,36.28
2022-12-18T14:28:32.845Z,35.10
2022-12-18T14:30:59.627Z,36.25
2022-12-18T14:33:29.670Z,38.40
2022-12-18T14:36:05.657Z,38.45
2022-12-18T14:38:40.210Z,34.00
2022-12-18T14:41:18.110Z,36.70
2022-12-18T14:43:46.727Z,37.05
2022-12-18T14:46:28.816Z,36.50
2022-12-18T14:48:56.105Z,37.03
2022-12-18T14:51:25.920Z,38.40
2022-12-18T14:53:58.844Z,35.57
2022-12-18T14:56:31.206Z,37.90
2022-12-18T14:59:00.942Z,39.03
2022-12-18T15:01:34.233Z,36.15
2022-12-18T15:04:02.761Z,37.47
2022-12-18T15:06:38.377Z,39.45
2022-12-18T15:09:23.073Z,37.83
2022-12-18T15:11:49.900Z,40.38
2022-12-18T15:14:43.410Z,41.17
2022-12-18T15:17:22.641Z,37.90
2022-12-18T15:19:54.281Z,43.65
2022-12-18T15:22:30.367Z,41.55
2022-12-18T15:24:58.872Z,39.58
2022-12-18T15:27:30.556Z,38.97
2022-12-18T15:30:24.742Z,40.88
2022-12-18T15:32:52.723Z,41.38
2022-12-18T15:35:25.990Z,41.33
2022-12-18T15:37:53.239Z,43.63
2022-12-18T15:40:23.199Z,43.88
2022-12-18T15:43:12.977Z,44.15
2022-12-18T15:45:41.741Z,46.03
2022-12-18T15:48:41.395Z,47.20
2022-12-18T15:51:32.612Z,47.40
2022-12-18T15:54:01.874Z,46.78
2022-12-18T15:56:47.365Z,49.00
2022-12-18T15:59:19.877Z,45.25
2022-12-18T16:01:48.460Z,44.33
2022-12-18T16:04:17.138Z,44.03
2022-12-18T16:07:13.230Z,46.60
2022-12-18T16:09:30.643Z,47.92
2022-12-18T16:11:57.605Z,46.30
2022-12-18T16:14:29.386Z,47.50
2022-12-18T16:19:31.215Z,44.97
2022-12-18T16:21:59.132Z,48.55
2022-12-18T16:24:31.030Z,46.28
2022-12-18T16:27:00.390Z,47.38
2022-12-18T16:29:28.826Z,44.95
2022-12-18T16:32:00.215Z,45.90
2022-12-18T16:34:34.865Z,43.80
2022-12-18T16:37:08.400Z,43.33
2022-12-18T16:39:35.861Z,43.00
2022-12-18T16:42:05.796Z,40.63
2022-12-18T16:44:34.011Z,40.67
2022-12-18T16:47:03.449Z,41.33
2022-12-18T16:49:30.720Z,41.30
2022-12-18T16:51:57.586Z,40.53
2022-12-18T16:54:25.029Z,38.25
2022-12-18T16:56:52.774Z,41.67
2022-12-18T16:59:19.433Z,40.10
2022-12-18T17:01:47.825Z,41.45
2022-12-18T17:04:15.026Z,45.10
2022-12-18T17:06:44.299Z,45.50
2022-12-18T17:09:16.338Z,43.83
2022-12-18T17:11:43.692Z,42.78
2022-12-18T17:14:14.433Z,41.88
2022-12-18T17:16:41.813Z,39.08
2022-12-18T17:19:13.750Z,42.45
2022-12-18T17:21:45.055Z,41.75
2022-12-18T17:24:11.786Z,42.13
2022-12-18T17:26:38.281Z,42.83
2022-12-18T17:29:06.165Z,39.72
2022-12-18T17:31:34.236Z,40.78
2022-12-18T17:34:04.580Z,38.72
2022-12-18T17:36:32.213Z,42.30
2022-12-18T17:39:01.515Z,39.70
2022-12-18T17:41:29.483Z,44.35
2022-12-18T17:44:02.287Z,40.92
2022-12-18T17:46:30.901Z,40.50
2022-12-18T17:49:02.715Z,42.08
2022-12-18T17:51:29.978Z,40.80
2022-12-18T17:53:57.016Z,40.70
2022-12-18T17:56:24.801Z,39.97
2022-12-18T17:58:52.001Z,39.95
2022-12-18T18:01:22.201Z,41.30
2022-12-18T18:03:51.963Z,40.63
2022-12-18T18:06:21.003Z,42.63
2022-12-18T18:08:48.092Z,43.60
2022-12-18T18:11:37.010Z,39.65
2022-12-18T18:14:11.773Z,40.97
2022-12-18T18:16:42.120Z,41.15
2022-12-18T18:19:11.498Z,41.15
2022-12-18T18:21:40.902Z,41.00
2022-12-18T18:24:09.630Z,38.70
2022-12-18T18:26:37.721Z,39.22
2022-12-18T18:29:06.677Z,40.58
2022-12-18T18:31:40.933Z,39.75
2022-12-18T18:34:08.621Z,43.75
2022-12-18T18:36:35.315Z,40.30
2022-12-18T18:39:02.172Z,40.08
2022-12-18T18:41:30.347Z,40.38
2022-12-18T18:43:58.306Z,42.38
2022-12-18T18:46:25.713Z,39.88
2022-12-18T18:48:55.179Z,39.85
2022-12-18T18:51:23.002Z,39.15
2022-12-18T18:53:51.700Z,40.28
2022-12-18T18:59:08.547Z,41.88
2022-12-18T19:01:35.106Z,43.30
2022-12-18T19:04:05.463Z,40.95
2022-12-18T19:06:32.084Z,43.15
2022-12-18T19:09:02.599Z,42.03
2022-12-18T19:11:47.647Z,42.58
2022-12-18T19:14:15.844Z,47.05
2022-12-18T19:16:43.637Z,45.85
2022-12-18T19:19:11.506Z,42.60
2022-12-18T19:21:38.280Z,42.33
2022-12-18T19:24:05.985Z,42.63
2022-12-18T19:26:32.933Z,41.45
2022-12-18T19:29:05.709Z,42.90
2022-12-18T19:31:35.932Z,45.20
2022-12-18T19:36:31.137Z,45.42
2022-12-18T19:38:59.843Z,43.53
2022-12-18T19:41:31.200Z,44.55
2022-12-18T19:44:00.381Z,45.63
2022-12-18T19:46:31.376Z,41.88
2022-12-18T19:49:00.177Z,43.05
2022-12-18T19:51:29.154Z,46.45
2022-12-18T19:54:00.411Z,45.10
2022-12-18T19:56:31.057Z,42.30
2022-12-18T19:58:58.201Z,43.50
2022-12-18T20:01:26.371Z,43.97
2022-12-18T20:03:54.411Z,43.55
2022-12-18T20:06:50.834Z,41.50
2022-12-18T20:09:18.602Z,42.90
2022-12-18T20:11:46.240Z,43.67
2022-12-18T20:14:14.717Z,42.00
2022-12-18T20:16:46.365Z,42.30
2022-12-18T20:19:14.168Z,45.72
2022-12-18T20:21:41.637Z,42.83
2022-12-18T20:24:11.046Z,45.55
2022-12-18T20:26:38.482Z,44.03
2022-12-18T20:29:05.016Z,45.38
2022-12-18T20:31:32.133Z,42.83
2022-12-18T20:34:01.564Z,43.22
2022-12-18T20:36:30.711Z,44.25
2022-12-18T20:39:00.463Z,43.83
2022-12-18T20:41:33.530Z,40.65
2022-12-18T20:44:05.079Z,45.70
2022-12-18T20:46:34.116Z,43.15
2022-12-18T20:49:00.749Z,45.58
2022-12-18T20:51:29.075Z,40.13
2022-12-18T20:53:55.574Z,43.15
2022-12-18T20:56:23.518Z,44.55
2022-12-18T20:58:53.964Z,44.33
2022-12-18T21:01:24.127Z,43.50
2022-12-18T21:03:51.381Z,43.08
2022-12-18T21:06:20.412Z,42.92
2022-12-18T21:08:48.201Z,43.17
2022-12-18T21:11:39.626Z,42.80
2022-12-18T21:14:10.524Z,48.70
2022-12-18T21:16:40.923Z,43.92
2022-12-18T21:19:08.787Z,45.15
2022-12-18T21:21:38.812Z,43.83
2022-12-18T21:24:07.788Z,47.53
2022-12-18T21:26:34.708Z,44.17
2022-12-18T21:29:04.051Z,48.50
2022-12-18T21:31:34.189Z,46.37
2022-12-18T21:34:02.372Z,45.15
2022-12-18T21:36:30.089Z,41.28
2022-12-18T21:39:08.680Z,43.75
2022-12-18T21:42:19.375Z,43.10
2022-12-18T21:44:47.620Z,43.47
2022-12-18T21:47:22.714Z,41.67
2022-12-18T21:49:52.564Z,42.60
2022-12-18T21:52:22.176Z,44.28
2022-12-18T21:55:01.786Z,43.90
2022-12-18T21:57:33.176Z,43.40
2022-12-18T21:59:59.666Z,43.30
2022-12-18T22:02:26.888Z,41.92
2022-12-18T22:04:53.634Z,47.10
2022-12-18T22:07:20.525Z,43.25
2022-12-18T22:09:49.451Z,44.60
2022-12-18T22:12:35.076Z,44.50
2022-12-18T22:15:04.516Z,43.10
2022-12-18T22:17:31.002Z,44.47
2022-12-18T22:19:57.670Z,44.58
2022-12-18T22:22:24.690Z,41.35
2022-12-18T22:24:51.418Z,43.03
2022-12-18T22:27:18.055Z,43.65
2022-12-18T22:30:03.453Z,46.22
2022-12-18T22:32:35.043Z,45.03
2022-12-18T22:35:09.210Z,44.55
2022-12-18T22:37:39.532Z,45.85
2022-12-18T22:40:07.235Z,43.10
2022-12-18T22:42:34.390Z,44.00
2022-12-18T22:45:00.824Z,45.17
2022-12-18T22:47:30.034Z,43.47
2022-12-18T22:49:57.346Z,42.75
2022-12-18T22:52:24.864Z,44.33
2022-12-18T22:54:53.554Z,46.10
2022-12-18T22:57:21.696Z,44.90
2022-12-18T22:59:49.455Z,46.53
2022-12-18T23:02:17.628Z,45.80
2022-12-18T23:04:44.876Z,47.83
2022-12-18T23:07:11.881Z,47.00
2022-12-18T23:09:39.342Z,45.67
2022-12-18T23:12:06.242Z,47.10
2022-12-18T23:14:32.724Z,46.17
2022-12-18T23:16:59.154Z,47.55
2022-12-18T23:19:26.258Z,45.70
2022-12-18T23:21:54.844Z,46.17
2022-12-18T23:24:25.353Z,44.35
2022-12-18T23:26:51.998Z,43.30
2022-12-18T23:29:18.432Z,45.40
2022-12-18T23:31:45.511Z,43.25
2022-12-18T23:34:14.063Z,43.00
2022-12-18T23:36:45.537Z,44.85
2022-12-18T23:39:27.550Z,44.75
2022-12-18T23:41:59.953Z,44.92
2022-12-18T23:44:26.977Z,44.80
2022-12-18T23:46:53.721Z,44.33
2022-12-18T23:49:20.399Z,42.17
2022-12-18T23:51:46.912Z,46.70
2022-12-18T23:54:13.438Z,43.28
2022-12-18T23:56:40.142Z,40.67
2022-12-18T23:59:06.804Z,42.13
